Time;durP1;ratioP1;P1;durP2;ratioP2;P2;SDS_P1;SDS_P2;PMS_P1;PMS_P2;Temp;Humidity;BMP_temperature;BMP_pressure;BME280_temperature;BME280_humidity;BME280_pressure;Samples;Min_cycle;Max_cycle;Signal;HPM_P1;HPM_P2
2023/02/17 00:00:49;;;;;;;4.63;2.60;;;;;;;;;;5071889;28;20032;-75
2023/02/17 00:03:14;;;;;;;5.18;2.70;;;;;;;;;;5073668;28;20336;-75
2023/02/17 00:05:39;;;;;;;6.32;3.35;;;;;;;;;;5072838;28;20025;-75
2023/02/17 00:08:05;;;;;;;6.07;2.78;;;;;;;;;;5073610;28;20040;-75
2023/02/17 00:10:30;;;;;;;4.63;3.08;;;;;;;;;;5072174;28;20020;-75
2023/02/17 00:12:55;;;;;;;5.70;3.80;;;;;;;;;;5073460;28;20016;-75
2023/02/17 00:15:20;;;;;;;7.00;3.50;;;;;;;;;;5073627;28;20055;-75
2023/02/17 00:17:46;;;;;;;6.43;3.00;;;;;;;;;;5072787;28;20040;-75
2023/02/17 00:20:11;;;;;;;7.07;3.67;;;;;;;;;;5073201;28;20067;-75
2023/02/17 00:22:36;;;;;;;5.53;3.17;;;;;;;;;;5073187;28;20432;-75
2023/02/17 00:25:02;;;;;;;6.72;3.53;;;;;;;;;;5073076;28;20013;-75
2023/02/17 00:27:27;;;;;;;7.85;3.15;;;;;;;;;;5073139;28;20016;-75
2023/02/17 00:29:52;;;;;;;8.35;3.50;;;;;;;;;;5072221;28;20321;-75
2023/02/17 00:32:17;;;;;;;5.93;3.03;;;;;;;;;;5073276;28;20027;-75
2023/02/17 00:34:42;;;;;;;6.38;3.13;;;;;;;;;;5072826;28;20071;-75
2023/02/17 00:37:08;;;;;;;4.88;2.65;;;;;;;;;;5071944;28;20021;-75
2023/02/17 00:39:33;;;;;;;5.43;2.45;;;;;;;;;;5072858;28;20017;-75
2023/02/17 00:41:58;;;;;;;4.97;3.28;;;;;;;;;;5069898;28;20020;-75
2023/02/17 00:44:24;;;;;;;6.10;3.20;;;;;;;;;;5058883;28;20012;-75
2023/02/17 00:46:49;;;;;;;7.00;2.63;;;;;;;;;;5072619;28;20108;-75
2023/02/17 00:49:16;;;;;;;6.63;2.97;;;;;;;;;;5072780;28;20432;-75
2023/02/17 00:51:41;;;;;;;7.63;2.78;;;;;;;;;;5072857;28;20040;-75
2023/02/17 00:54:06;;;;;;;4.43;2.70;;;;;;;;;;5069655;28;20094;-75
2023/02/17 00:56:31;;;;;;;6.32;3.55;;;;;;;;;;5072642;28;20442;-75
2023/02/17 00:58:56;;;;;;;6.28;2.50;;;;;;;;;;5072734;28;20442;-75
2023/02/17 01:01:22;;;;;;;6.80;3.42;;;;;;;;;;5072530;28;20025;-75
2023/02/17 01:03:47;;;;;;;5.55;2.95;;;;;;;;;;5071008;28;20012;-75
2023/02/17 01:06:17;;;;;;;5.82;3.17;;;;;;;;;;5071259;28;20104;-75
2023/02/17 01:08:42;;;;;;;6.00;3.75;;;;;;;;;;5072463;28;20024;-75
2023/02/17 01:11:15;;;;;;;4.10;2.00;;;;;;;;;;5072099;28;20590;-75
2023/02/17 01:13:40;;;;;;;;;;;;;;;;;;5072890;28;20099;-75
2023/02/17 01:16:05;;;;;;;4.50;2.50;;;;;;;;;;5071464;28;19940;-75
2023/02/17 01:18:30;;;;;;;3.92;2.70;;;;;;;;;;5076785;28;20352;-75
2023/02/17 01:20:55;;;;;;;7.43;3.28;;;;;;;;;;5087976;28;20038;-75
2023/02/17 01:23:20;;;;;;;5.97;3.15;;;;;;;;;;5092471;28;20400;-75
2023/02/17 01:25:46;;;;;;;5.03;2.53;;;;;;;;;;5092341;28;20028;-75
2023/02/17 01:28:14;;;;;;;6.43;3.13;;;;;;;;;;5080928;28;20475;-75
2023/02/17 01:30:39;;;;;;;5.75;3.00;;;;;;;;;;5083298;28;20047;-75
2023/02/17 01:33:04;;;;;;;8.40;3.20;;;;;;;;;;5092258;28;20043;-75
2023/02/17 01:35:30;;;;;;;4.40;2.22;;;;;;;;;;5091540;28;20408;-75
2023/02/17 01:37:55;;;;;;;5.82;3.97;;;;;;;;;;5080372;28;20028;-75
2023/02/17 01:40:20;;;;;;;5.15;2.40;;;;;;;;;;5090427;28;20020;-75
2023/02/17 01:42:45;;;;;;;6.35;2.47;;;;;;;;;;5083426;28;20024;-75
2023/02/17 01:45:16;;;;;;;5.05;2.10;;;;;;;;;;5063665;28;20530;-75
2023/02/17 01:48:02;;;;;;;2.92;1.75;;;;;;;;;;5070767;28;20097;-75
2023/02/17 01:50:32;;;;;;;5.45;3.35;;;;;;;;;;5070201;28;20436;-75
2023/02/17 01:53:00;;;;;;;4.95;2.35;;;;;;;;;;5071875;28;20361;-75
2023/02/17 01:55:25;;;;;;;3.40;1.92;;;;;;;;;;5069481;28;20067;-75
2023/02/17 01:57:52;;;;;;;4.47;2.35;;;;;;;;;;5070865;28;20052;-75
2023/02/17 02:00:19;;;;;;;4.85;2.80;;;;;;;;;;5071560;28;20111;-75
2023/02/17 02:02:45;;;;;;;3.13;2.20;;;;;;;;;;5071339;28;20028;-75
2023/02/17 02:05:11;;;;;;;4.30;2.33;;;;;;;;;;5071108;28;20352;-75
2023/02/17 02:07:38;;;;;;;5.25;2.63;;;;;;;;;;5071286;28;20035;-75
2023/02/17 02:10:04;;;;;;;4.05;2.30;;;;;;;;;;5070279;28;20051;-75
2023/02/17 02:12:34;;;;;;;2.20;1.60;;;;;;;;;;5068955;28;20498;-75
2023/02/17 02:15:02;;;;;;;3.53;2.05;;;;;;;;;;5071213;28;20640;-75
2023/02/17 02:17:36;;;;;;;4.90;3.33;;;;;;;;;;5069898;28;20130;-75
2023/02/17 02:20:13;;;;;;;4.28;2.30;;;;;;;;;;5071344;28;20028;-75
2023/02/17 02:22:43;;;;;;;4.95;2.47;;;;;;;;;;5071328;28;20024;-75
2023/02/17 02:25:28;;;;;;;4.97;3.03;;;;;;;;;;5068839;28;20048;-75
2023/02/17 02:28:12;;;;;;;4.78;2.20;;;;;;;;;;5031557;28;20090;-75
2023/02/17 02:30:44;;;;;;;6.65;2.22;;;;;;;;;;5070995;28;20020;-75
2023/02/17 02:33:18;;;;;;;3.65;2.03;;;;;;;;;;5069941;28;20154;-75
2023/02/17 02:35:43;;;;;;;3.97;2.08;;;;;;;;;;5069577;28;20032;-75
2023/02/17 02:38:08;;;;;;;7.03;3.88;;;;;;;;;;5068827;28;20029;-75
2023/02/17 02:40:36;;;;;;;4.60;2.35;;;;;;;;;;5071078;28;20484;-75
2023/02/17 02:43:02;;;;;;;4.68;2.13;;;;;;;;;;5069848;28;20081;-75
2023/02/17 02:45:27;;;;;;;5.28;3.13;;;;;;;;;;5069645;28;20116;-75
2023/02/17 02:47:54;;;;;;;5.38;3.20;;;;;;;;;;5074309;28;20048;-75
2023/02/17 02:50:22;;;;;;;4.55;2.38;;;;;;;;;;5073757;28;20028;-75
2023/02/17 02:52:47;;;;;;;5.75;2.70;;;;;;;;;;5074782;28;20025;-75
2023/02/17 02:55:22;;;;;;;3.70;1.75;;;;;;;;;;5074798;28;20009;-75
2023/02/17 02:57:56;;;;;;;3.92;2.10;;;;;;;;;;5074862;28;20380;-75
2023/02/17 03:00:28;;;;;;;4.25;1.80;;;;;;;;;;5073334;28;20074;-75
2023/02/17 03:02:58;;;;;;;3.28;1.77;;;;;;;;;;5074925;28;20021;-75
2023/02/17 03:05:43;;;;;;;3.45;1.77;;;;;;;;;;5070834;28;20085;-75
2023/02/17 03:08:11;;;;;;;4.28;1.88;;;;;;;;;;5074387;28;20060;-75
2023/02/17 03:10:43;;;;;;;3.90;1.98;;;;;;;;;;5074390;28;20024;-75
2023/02/17 03:13:08;;;;;;;3.58;1.90;;;;;;;;;;5072908;28;20042;-75
2023/02/17 03:15:34;;;;;;;2.80;1.73;;;;;;;;;;5073629;28;20107;-75
2023/02/17 03:18:00;;;;;;;4.65;2.17;;;;;;;;;;5074351;28;20148;-75
2023/02/17 03:20:27;;;;;;;5.85;3.05;;;;;;;;;;5074059;28;20036;-76
2023/02/17 03:22:53;;;;;;;6.35;2.60;;;;;;;;;;5072991;28;20036;-75
2023/02/17 03:25:18;;;;;;;7.47;2.65;;;;;;;;;;5072981;28;20048;-75
2023/02/17 03:27:43;;;;;;;8.75;3.22;;;;;;;;;;5073215;28;20463;-75
2023/02/17 03:30:09;;;;;;;8.85;3.53;;;;;;;;;;5074225;28;20109;-75
2023/02/17 03:32:34;;;;;;;6.78;2.92;;;;;;;;;;5074284;28;20380;-75
2023/02/17 03:34:59;;;;;;;8.95;4.05;;;;;;;;;;5074092;28;20027;-75
2023/02/17 03:37:25;;;;;;;8.18;3.15;;;;;;;;;;5072607;28;20389;-75
2023/02/17 03:39:50;;;;;;;4.80;2.30;;;;;;;;;;5072930;28;20537;-75
2023/02/17 03:42:15;;;;;;;5.00;2.58;;;;;;;;;;5072870;28;20021;-75
2023/02/17 03:44:40;;;;;;;8.32;3.25;;;;;;;;;;5073359;28;20028;-75
2023/02/17 03:47:06;;;;;;;6.55;3.03;;;;;;;;;;5073911;28;20368;-75
2023/02/17 03:49:31;;;;;;;6.43;2.38;;;;;;;;;;5073511;28;20118;-75
2023/02/17 03:51:58;;;;;;;5.32;2.08;;;;;;;;;;5070392;28;20534;-75
2023/02/17 03:54:23;;;;;;;9.05;3.42;;;;;;;;;;5073539;28;20099;-75
2023/02/17 03:56:48;;;;;;;3.97;1.85;;;;;;;;;;5073612;28;20108;-75
2023/02/17 03:59:13;;;;;;;6.97;3.55;;;;;;;;;;5073116;28;20468;-75
2023/02/17 04:01:39;;;;;;;4.60;1.95;;;;;;;;;;5073575;28;20130;-75
2023/02/17 04:04:04;;;;;;;3.95;2.15;;;;;;;;;;5072346;28;20016;-75
2023/02/17 04:06:29;;;;;;;3.92;1.90;;;;;;;;;;5073803;28;20020;-75
2023/02/17 04:08:54;;;;;;;5.90;2.15;;;;;;;;;;5073236;28;20028;-75
2023/02/17 04:11:19;;;;;;;5.00;2.05;;;;;;;;;;5072328;28;20040;-75
2023/02/17 04:13:45;;;;;;;5.80;3.15;;;;;;;;;;5073380;28;20020;-75
2023/02/17 04:16:11;;;;;;;5.75;2.55;;;;;;;;;;5072295;28;20040;-75
2023/02/17 04:18:36;;;;;;;3.50;1.95;;;;;;;;;;5073298;28;20464;-75
2023/02/17 04:21:02;;;;;;;6.70;3.10;;;;;;;;;;5073105;28;20012;-75
2023/02/17 04:23:27;;;;;;;6.57;2.10;;;;;;;;;;5073444;28;20012;-75
2023/02/17 04:25:52;;;;;;;5.53;2.38;;;;;;;;;;5072887;28;20498;-75
2023/02/17 04:28:18;;;;;;;4.15;1.85;;;;;;;;;;5071787;28;20016;-75
2023/02/17 04:30:47;;;;;;;6.63;2.88;;;;;;;;;;5072573;28;20031;-75
2023/02/17 04:33:12;;;;;;;6.72;3.35;;;;;;;;;;5073332;28;20448;-75
2023/02/17 04:35:37;;;;;;;6.78;2.63;;;;;;;;;;5073070;28;20066;-75
2023/02/17 04:38:03;;;;;;;5.93;3.15;;;;;;;;;;5072812;28;20063;-75
2023/02/17 04:40:29;;;;;;;6.70;2.53;;;;;;;;;;5071643;28;20047;-75
2023/02/17 04:42:54;;;;;;;5.47;2.35;;;;;;;;;;5072833;28;20033;-75
2023/02/17 04:45:19;;;;;;;8.40;2.80;;;;;;;;;;5072820;28;20012;-75
2023/02/17 04:47:44;;;;;;;4.97;2.50;;;;;;;;;;5072976;28;20013;-75
2023/02/17 04:50:10;;;;;;;5.50;2.67;;;;;;;;;;5072718;28;20016;-75
2023/02/17 04:52:35;;;;;;;6.22;2.65;;;;;;;;;;5071382;28;20029;-75
2023/02/17 04:55:00;;;;;;;7.40;3.50;;;;;;;;;;5070677;28;20130;-75
2023/02/17 04:57:26;;;;;;;6.05;1.48;;;;;;;;;;5072245;28;20017;-75
2023/02/17 04:59:51;;;;;;;4.60;2.22;;;;;;;;;;5070841;28;20125;-75
2023/02/17 05:02:16;;;;;;;5.30;2.13;;;;;;;;;;5071590;28;20462;-75
2023/02/17 05:04:42;;;;;;;4.32;2.03;;;;;;;;;;5072049;28;20418;-75
2023/02/17 05:07:07;;;;;;;4.13;2.25;;;;;;;;;;5072136;28;20464;-75
2023/02/17 05:09:32;;;;;;;3.67;1.98;;;;;;;;;;5070261;28;20016;-75
2023/02/17 05:11:58;;;;;;;5.47;2.35;;;;;;;;;;5071559;28;20036;-75
2023/02/17 05:14:23;;;;;;;6.80;2.53;;;;;;;;;;5070531;28;20504;-75
2023/02/17 05:16:48;;;;;;;5.65;2.55;;;;;;;;;;5072379;28;20066;-75
2023/02/17 05:19:13;;;;;;;4.32;2.05;;;;;;;;;;5072152;28;20039;-75
2023/02/17 05:21:38;;;;;;;4.72;2.08;;;;;;;;;;5072139;28;20119;-75
2023/02/17 05:24:04;;;;;;;6.30;2.72;;;;;;;;;;5070963;28;20020;-75
2023/02/17 05:26:29;;;;;;;2.35;1.38;;;;;;;;;;5070688;28;20020;-75
2023/02/17 05:28:54;;;;;;;5.00;2.50;;;;;;;;;;5071755;28;20016;-74
2023/02/17 05:31:19;;;;;;;4.00;1.52;;;;;;;;;;5070145;28;20032;-75
2023/02/17 05:33:44;;;;;;;4.03;1.88;;;;;;;;;;5070606;28;20028;-75
2023/02/17 05:36:10;;;;;;;4.47;1.90;;;;;;;;;;5070546;28;20097;-75
2023/02/17 05:38:36;;;;;;;4.38;2.08;;;;;;;;;;5071915;28;20416;-75
2023/02/17 05:41:01;;;;;;;7.40;2.38;;;;;;;;;;5070244;28;20027;-75
2023/02/17 05:43:26;;;;;;;7.00;2.35;;;;;;;;;;5071694;28;20066;-75
2023/02/17 05:45:52;;;;;;;7.18;1.85;;;;;;;;;;5071461;28;20031;-75
2023/02/17 05:48:17;;;;;;;3.90;1.65;;;;;;;;;;5070565;28;20031;-75
2023/02/17 05:50:42;;;;;;;6.05;2.17;;;;;;;;;;5071522;28;20016;-75
2023/02/17 05:53:07;;;;;;;4.53;2.30;;;;;;;;;;5071499;28;20020;-74
2023/02/17 05:55:32;;;;;;;4.88;3.17;;;;;;;;;;5071438;28;20032;-75
2023/02/17 05:57:58;;;;;;;6.45;1.92;;;;;;;;;;5071593;28;20058;-75
2023/02/17 06:00:23;;;;;;;3.95;1.83;;;;;;;;;;5070446;28;20036;-75
2023/02/17 06:02:48;;;;;;;4.68;2.13;;;;;;;;;;5071522;28;20099;-75
2023/02/17 06:05:14;;;;;;;4.25;1.70;;;;;;;;;;5069790;28;20020;-75
2023/02/17 06:07:39;;;;;;;5.05;2.75;;;;;;;;;;5071730;28;20017;-75
2023/02/17 06:10:05;;;;;;;6.43;2.72;;;;;;;;;;5071239;28;20021;-75
2023/02/17 06:12:30;;;;;;;7.70;2.83;;;;;;;;;;5069295;28;20503;-74
2023/02/17 06:14:55;;;;;;;6.22;2.70;;;;;;;;;;5070017;28;20056;-75
2023/02/17 06:17:25;;;;;;;3.90;1.75;;;;;;;;;;5069781;28;20020;-75
2023/02/17 06:19:50;;;;;;;5.72;2.97;;;;;;;;;;5070787;28;20039;-76
2023/02/17 06:22:15;;;;;;;5.85;2.42;;;;;;;;;;5070922;28;20383;-75
2023/02/17 06:24:40;;;;;;;4.63;2.28;;;;;;;;;;5068885;28;20108;-75
2023/02/17 06:27:05;;;;;;;5.03;2.10;;;;;;;;;;5071071;28;20379;-75
2023/02/17 06:29:31;;;;;;;4.65;1.85;;;;;;;;;;5071180;28;20019;-75
2023/02/17 06:31:56;;;;;;;3.97;2.03;;;;;;;;;;5071336;28;20122;-75
2023/02/17 06:34:21;;;;;;;4.63;2.60;;;;;;;;;;5071107;28;20032;-75
2023/02/17 06:36:46;;;;;;;4.72;2.25;;;;;;;;;;5070149;28;20038;-75
2023/02/17 06:39:12;;;;;;;10.25;2.30;;;;;;;;;;5070996;28;20028;-75
2023/02/17 06:41:37;;;;;;;7.20;2.90;;;;;;;;;;5070921;28;20024;-75
2023/02/17 06:44:02;;;;;;;4.80;2.20;;;;;;;;;;5070960;28;20364;-75
2023/02/17 06:46:28;;;;;;;5.22;1.75;;;;;;;;;;5070744;28;20019;-75
2023/02/17 06:48:53;;;;;;;4.53;2.78;;;;;;;;;;5068819;28;20032;-75
2023/02/17 06:51:18;;;;;;;6.60;2.60;;;;;;;;;;5070933;28;20024;-75
2023/02/17 06:53:43;;;;;;;5.20;1.25;;;;;;;;;;5071383;28;20036;-75
2023/02/17 06:56:08;;;;;;;3.80;1.95;;;;;;;;;;5069303;28;20427;-75
2023/02/17 06:58:35;;;;;;;3.95;1.58;;;;;;;;;;5071048;28;20028;-75
2023/02/17 07:01:00;;;;;;;3.05;1.48;;;;;;;;;;5069091;28;20029;-75
2023/02/17 07:03:25;;;;;;;3.08;1.42;;;;;;;;;;5069454;28;20067;-75
2023/02/17 07:05:55;;;;;;;4.60;1.95;;;;;;;;;;5070819;28;20013;-75
2023/02/17 07:08:20;;;;;;;5.30;2.42;;;;;;;;;;5070736;28;20480;-75
2023/02/17 07:10:45;;;;;;;4.53;2.67;;;;;;;;;;5069880;28;20046;-76
2023/02/17 07:13:10;;;;;;;5.28;2.95;;;;;;;;;;5068984;28;20025;-75
2023/02/17 07:15:36;;;;;;;7.40;2.65;;;;;;;;;;5068742;28;20448;-76
2023/02/17 07:18:01;;;;;;;4.80;1.83;;;;;;;;;;5069910;28;20023;-75
2023/02/17 07:20:27;;;;;;;4.63;2.83;;;;;;;;;;5070550;28;20035;-76
2023/02/17 07:22:52;;;;;;;5.72;2.25;;;;;;;;;;5070086;28;20383;-75
2023/02/17 07:25:17;;;;;;;4.75;2.03;;;;;;;;;;5069467;28;20028;-75
2023/02/17 07:27:42;;;;;;;4.90;2.90;;;;;;;;;;5070008;28;20055;-75
2023/02/17 07:30:08;;;;;;;3.92;1.85;;;;;;;;;;5069457;28;20020;-76
2023/02/17 07:32:34;;;;;;;5.38;3.25;;;;;;;;;;5070424;28;20077;-75
2023/02/17 07:34:59;;;;;;;5.05;2.40;;;;;;;;;;5067819;28;20054;-76
2023/02/17 07:37:24;;;;;;;7.88;2.83;;;;;;;;;;5068764;28;20051;-75
2023/02/17 07:39:51;;;;;;;5.63;2.67;;;;;;;;;;5072784;28;20439;-75
2023/02/17 07:42:16;;;;;;;5.60;2.22;;;;;;;;;;5072848;28;20024;-75
2023/02/17 07:44:41;;;;;;;6.78;2.63;;;;;;;;;;5070167;28;20016;-75
2023/02/17 07:47:06;;;;;;;5.22;2.58;;;;;;;;;;5079867;28;20060;-75
2023/02/17 07:49:32;;;;;;;5.68;2.50;;;;;;;;;;5068801;28;20133;-75
2023/02/17 07:51:57;;;;;;;5.43;2.22;;;;;;;;;;5072682;28;20031;-75
2023/02/17 07:54:22;;;;;;;6.90;3.17;;;;;;;;;;5073250;28;20352;-75
2023/02/17 07:56:47;;;;;;;7.45;2.25;;;;;;;;;;5072026;28;20115;-76
2023/02/17 07:59:13;;;;;;;6.05;2.08;;;;;;;;;;5071361;28;20021;-75
2023/02/17 08:01:38;;;;;;;3.65;1.95;;;;;;;;;;5073379;28;20103;-76
2023/02/17 08:04:04;;;;;;;6.85;2.45;;;;;;;;;;5073051;28;20021;-75
2023/02/17 08:06:29;;;;;;;5.95;2.50;;;;;;;;;;5071231;28;20048;-75
2023/02/17 08:14:25;;;;;;;7.25;3.08;;;;;;;;;;5072632;28;20036;-79
2023/02/17 08:16:50;;;;;;;3.03;1.52;;;;;;;;;;5071183;28;20059;-75
2023/02/17 08:19:15;;;;;;;5.47;1.90;;;;;;;;;;5070366;28;20024;-75
2023/02/17 08:21:40;;;;;;;4.72;2.25;;;;;;;;;;5071841;28;20048;-75
2023/02/17 08:24:06;;;;;;;9.43;2.80;;;;;;;;;;5073072;28;20016;-75
2023/02/17 08:26:31;;;;;;;4.25;2.15;;;;;;;;;;5072069;28;20047;-75
2023/02/17 08:28:56;;;;;;;6.07;1.70;;;;;;;;;;5070297;28;20016;-75
2023/02/17 08:31:23;;;;;;;5.47;2.88;;;;;;;;;;5068903;28;20028;-75
2023/02/17 08:33:49;;;;;;;5.47;3.10;;;;;;;;;;5067863;28;20427;-75
2023/02/17 08:36:14;;;;;;;6.05;2.85;;;;;;;;;;5071432;28;20031;-75
2023/02/17 08:38:40;;;;;;;3.92;1.85;;;;;;;;;;5068756;28;20166;-75
2023/02/17 08:41:23;;;;;;;6.00;3.30;;;;;;;;;;5072524;28;20497;-75
2023/02/17 08:43:49;;;;;;;4.90;2.58;;;;;;;;;;5072894;28;20070;-75
2023/02/17 08:46:14;;;;;;;5.65;3.40;;;;;;;;;;5071731;28;20020;-75
2023/02/17 08:48:40;;;;;;;5.75;3.08;;;;;;;;;;5070409;28;20020;-75
2023/02/17 08:51:05;;;;;;;3.78;2.00;;;;;;;;;;5071486;28;20016;-75
2023/02/17 08:53:31;;;;;;;4.68;2.17;;;;;;;;;;5072604;28;20019;-75
2023/02/17 08:55:56;;;;;;;4.68;2.72;;;;;;;;;;5071098;28;20022;-76
2023/02/17 08:58:21;;;;;;;4.30;2.50;;;;;;;;;;5071292;28;20036;-76
2023/02/17 09:00:46;;;;;;;3.92;2.10;;;;;;;;;;5072335;28;20095;-76
2023/02/17 09:03:12;;;;;;;5.25;2.63;;;;;;;;;;5072525;28;20016;-76
2023/02/17 09:05:37;;;;;;;4.35;2.03;;;;;;;;;;5071174;28;20016;-76
2023/02/17 09:08:02;;;;;;;4.63;1.88;;;;;;;;;;5071378;28;20016;-76
2023/02/17 09:10:27;;;;;;;5.55;2.08;;;;;;;;;;5070772;28;20029;-75
2023/02/17 09:12:53;;;;;;;4.00;2.70;;;;;;;;;;5084434;28;20027;-76
2023/02/17 09:15:18;;;;;;;5.20;2.47;;;;;;;;;;5092627;28;20016;-75
2023/02/17 09:17:44;;;;;;;3.55;2.10;;;;;;;;;;5089483;28;20020;-76
2023/02/17 09:20:09;;;;;;;4.10;2.42;;;;;;;;;;5084079;28;20020;-76
2023/02/17 09:22:35;;;;;;;3.58;1.73;;;;;;;;;;5077076;28;20479;-76
2023/02/17 09:25:00;;;;;;;3.65;2.13;;;;;;;;;;5092415;28;20094;-75
2023/02/17 09:27:25;;;;;;;3.40;1.85;;;;;;;;;;5090669;28;20368;-76
2023/02/17 09:29:50;;;;;;;5.43;1.98;;;;;;;;;;5084432;28;20020;-76
2023/02/17 09:32:16;;;;;;;3.83;1.77;;;;;;;;;;5081994;28;20016;-76
2023/02/17 09:34:48;;;;;;;2.50;1.35;;;;;;;;;;5090598;28;20114;-76
2023/02/17 09:37:13;;;;;;;3.65;1.63;;;;;;;;;;5086537;28;20024;-76
2023/02/17 09:39:39;;;;;;;1.77;0.80;;;;;;;;;;5078759;28;20032;-76
2023/02/17 09:42:04;;;;;;;2.70;1.55;;;;;;;;;;5092347;28;20024;-76
2023/02/17 09:44:39;;;;;;;2.92;1.73;;;;;;;;;;5086597;28;20069;-76
2023/02/17 09:47:13;;;;;;;2.47;1.60;;;;;;;;;;5080023;28;20032;-76
2023/02/17 09:49:41;;;;;;;3.20;1.65;;;;;;;;;;5077094;28;20097;-76
2023/02/17 09:52:19;;;;;;;3.60;1.60;;;;;;;;;;5091570;28;20016;-76
2023/02/17 09:54:50;;;;;;;2.47;1.50;;;;;;;;;;5089796;28;20039;-76
2023/02/17 09:57:19;;;;;;;2.78;1.73;;;;;;;;;;5091604;28;20458;-76
2023/02/17 09:59:46;;;;;;;3.20;1.75;;;;;;;;;;5075279;28;20086;-75
2023/02/17 10:02:27;;;;;;;2.75;1.77;;;;;;;;;;5085486;28;20394;-75
2023/02/17 10:04:52;;;;;;;2.80;1.83;;;;;;;;;;5074270;28;20020;-75
2023/02/17 10:07:25;;;;;;;2.97;1.27;;;;;;;;;;5071491;28;20078;-75
2023/02/17 10:10:06;;;;;;;4.03;1.70;;;;;;;;;;5069993;28;20100;-76
2023/02/17 10:12:36;;;;;;;3.78;0.90;;;;;;;;;;5069997;28;20031;-76
2023/02/17 10:15:20;;;;;;;2.90;1.65;;;;;;;;;;5071856;28;20573;-75
2023/02/17 10:17:45;;;;;;;2.88;1.75;;;;;;;;;;5074728;28;20050;-75
2023/02/17 10:20:22;;;;;;;3.25;1.10;;;;;;;;;;5080366;28;20028;-76
2023/02/17 10:22:51;;;;;;;3.85;1.20;;;;;;;;;;5091832;28;20024;-75
2023/02/17 10:25:18;;;;;;;3.75;1.33;;;;;;;;;;5090316;28;20036;-75
2023/02/17 10:27:49;;;;;;;3.00;1.50;;;;;;;;;;5091721;28;20098;-76
2023/02/17 10:30:38;;;;;;;1.17;0.80;;;;;;;;;;5078623;28;20023;-75
2023/02/17 10:33:03;;;;;;;1.95;1.20;;;;;;;;;;5075025;28;20032;-75
2023/02/17 10:35:40;;;;;;;2.85;0.95;;;;;;;;;;5086292;28;20476;-75
2023/02/17 10:38:12;;;;;;;2.55;1.42;;;;;;;;;;5072461;28;20055;-75
2023/02/17 10:40:38;;;;;;;1.65;1.27;;;;;;;;;;5087231;28;20063;-75
2023/02/17 10:43:04;;;;;;;3.53;0.90;;;;;;;;;;5085711;28;20048;-75
2023/02/17 10:45:34;;;;;;;2.10;1.10;;;;;;;;;;5084080;28;20051;-75
2023/02/17 10:48:05;;;;;;;3.28;1.20;;;;;;;;;;5073762;28;20448;-75
2023/02/17 10:50:30;;;;;;;1.40;0.70;;;;;;;;;;5091028;28;20016;-75
2023/02/17 10:52:56;;;;;;;1.50;1.10;;;;;;;;;;5083319;28;20035;-75
2023/02/17 10:55:44;;;;;;;1.70;1.05;;;;;;;;;;5091092;28;20016;-75
2023/02/17 10:58:12;;;;;;;2.05;0.80;;;;;;;;;;5074976;28;20071;-75
2023/02/17 11:00:39;;;;;;;2.40;0.98;;;;;;;;;;5072745;28;20093;-75
2023/02/17 11:03:05;;;;;;;1.88;0.82;;;;;;;;;;5082518;28;20024;-75
2023/02/17 11:05:31;;;;;;;1.67;1.05;;;;;;;;;;5071204;28;20028;-75
2023/02/17 11:08:17;;;;;;;2.70;1.00;;;;;;;;;;5069499;28;20012;-75
2023/02/17 11:10:42;;;;;;;1.45;0.80;;;;;;;;;;5070219;28;20040;-75
2023/02/17 11:13:37;;;;;;;1.25;0.90;;;;;;;;;;5074918;28;20039;-75
2023/02/17 11:16:02;;;;;;;1.45;0.90;;;;;;;;;;5055487;28;20132;-76
2023/02/17 11:18:30;;;;;;;1.20;0.77;;;;;;;;;;5072294;28;20082;-76
2023/02/17 11:20:59;;;;;;;1.95;0.85;;;;;;;;;;5071428;28;20117;-75
2023/02/17 11:23:24;;;;;;;1.58;1.00;;;;;;;;;;5073213;28;20028;-75
2023/02/17 11:25:57;;;;;;;2.33;0.88;;;;;;;;;;5087563;28;20025;-75
2023/02/17 11:28:23;;;;;;;1.80;1.23;;;;;;;;;;5092930;28;20020;-75
2023/02/17 11:30:50;;;;;;;1.85;1.10;;;;;;;;;;5094483;28;20036;-75
2023/02/17 11:33:21;;;;;;;1.98;1.20;;;;;;;;;;5093126;28;20024;-76
2023/02/17 11:35:56;;;;;;;1.50;1.10;;;;;;;;;;5078061;28;20017;-75
2023/02/17 11:38:24;;;;;;;1.17;0.73;;;;;;;;;;5088955;28;20024;-75
2023/02/17 11:41:00;;;;;;;1.15;0.70;;;;;;;;;;5092541;28;20171;-75
2023/02/17 11:43:27;;;;;;;2.75;0.63;;;;;;;;;;5094182;28;20028;-75
2023/02/17 11:45:52;;;;;;;1.83;0.70;;;;;;;;;;5077776;28;20352;-76
2023/02/17 11:48:36;;;;;;;0.93;0.65;;;;;;;;;;5088422;28;20016;-76
2023/02/17 11:51:09;;;;;;;1.50;0.60;;;;;;;;;;5093785;28;20020;-75
2023/02/17 11:53:45;;;;;;;0.82;0.60;;;;;;;;;;5077479;28;20032;-75
2023/02/17 11:56:14;;;;;;;0.40;0.40;;;;;;;;;;5076387;28;20067;-75
2023/02/17 11:58:57;;;;;;;0.68;0.40;;;;;;;;;;5089071;28;20455;-75
2023/02/17 12:01:35;;;;;;;0.85;0.50;;;;;;;;;;5090762;28;20073;-76
2023/02/17 12:04:08;;;;;;;0.50;0.47;;;;;;;;;;5079078;28;20344;-75
2023/02/17 12:06:54;;;;;;;1.58;0.75;;;;;;;;;;5073576;28;20054;-75
2023/02/17 12:09:22;;;;;;;0.98;0.50;;;;;;;;;;5071018;28;20028;-76
2023/02/17 12:11:54;;;;;;;0.45;0.30;;;;;;;;;;5072254;28;20055;-75
2023/02/17 12:14:19;;;;;;;;;;;;;;;;;;5073555;28;20134;-75
2023/02/17 12:16:48;;;;;;;1.92;0.40;;;;;;;;;;5073462;28;20480;-76
2023/02/17 12:19:23;;;;;;;0.75;0.52;;;;;;;;;;5085622;28;20070;-76
2023/02/17 12:22:03;;;;;;;0.50;0.32;;;;;;;;;;5071483;28;20032;-75
2023/02/17 12:24:47;;;;;;;0.90;0.45;;;;;;;;;;5072415;28;20588;-75
2023/02/17 12:27:15;;;;;;;0.60;0.50;;;;;;;;;;5073184;28;20016;-75
2023/02/17 12:29:59;;;;;;;1.70;0.50;;;;;;;;;;5071850;28;20047;-76
2023/02/17 12:32:25;;;;;;;0.40;0.25;;;;;;;;;;5070924;28;20028;-75
2023/02/17 12:34:57;;;;;;;0.65;0.40;;;;;;;;;;5072916;28;20024;-75
2023/02/17 12:37:27;;;;;;;0.90;0.30;;;;;;;;;;5072967;28;20056;-75
2023/02/17 12:39:54;;;;;;;0.30;0.25;;;;;;;;;;5072592;28;20504;-76
2023/02/17 12:42:19;;;;;;;0.75;0.38;;;;;;;;;;5071309;28;20120;-75
2023/02/17 12:45:01;;;;;;;0.22;0.22;;;;;;;;;;5071211;28;20013;-75
2023/02/17 12:47:34;;;;;;;0.40;0.32;;;;;;;;;;5071124;28;20426;-75
2023/02/17 12:50:14;;;;;;;0.50;0.40;;;;;;;;;;5070429;28;20119;-76
2023/02/17 12:52:41;;;;;;;1.27;0.20;;;;;;;;;;5070896;28;20017;-76
2023/02/17 12:55:17;;;;;;;0.75;0.40;;;;;;;;;;5070227;28;20108;-76
2023/02/17 12:57:56;;;;;;;0.57;0.43;;;;;;;;;;5064948;28;20020;-76
2023/02/17 13:00:57;;;;;;;0.43;0.20;;;;;;;;;;5070228;28;20111;-76
2023/02/17 13:03:23;;;;;;;1.48;0.43;;;;;;;;;;5024215;28;20100;-75
2023/02/17 13:05:59;;;;;;;0.70;0.30;;;;;;;;;;5059222;28;20125;-75
2023/02/17 13:08:29;;;;;;;0.30;0.30;;;;;;;;;;5070863;28;20055;-75
2023/02/17 13:11:02;;;;;;;0.10;0.10;;;;;;;;;;5070850;28;20012;-75
2023/02/17 13:13:29;;;;;;;0.52;0.30;;;;;;;;;;5072350;28;20028;-75
2023/02/17 13:16:06;;;;;;;0.50;0.30;;;;;;;;;;5071137;28;20036;-75
2023/02/17 13:18:33;;;;;;;0.80;0.47;;;;;;;;;;5072062;28;20040;-75
2023/02/17 13:20:59;;;;;;;0.30;0.30;;;;;;;;;;5071427;28;20024;-75
2023/02/17 13:23:29;;;;;;;1.00;0.30;;;;;;;;;;5072137;28;20016;-75
2023/02/17 13:26:15;;;;;;;6.85;0.38;;;;;;;;;;5071816;28;20028;-76
2023/02/17 13:28:41;;;;;;;0.82;0.30;;;;;;;;;;5069464;28;20121;-75
2023/02/17 13:31:11;;;;;;;0.70;0.35;;;;;;;;;;5071078;28;20020;-75
2023/02/17 13:33:44;;;;;;;0.57;0.30;;;;;;;;;;5070698;28;20479;-76
2023/02/17 13:36:33;;;;;;;2.72;0.40;;;;;;;;;;5069849;28;20028;-75
2023/02/17 13:39:03;;;;;;;0.75;0.45;;;;;;;;;;5062155;28;20046;-75
2023/02/17 13:41:45;;;;;;;0.68;0.40;;;;;;;;;;5069616;28;20044;-75
2023/02/17 13:44:30;;;;;;;0.30;0.20;;;;;;;;;;5070633;28;20039;-75
2023/02/17 13:46:57;;;;;;;0.40;0.30;;;;;;;;;;5070039;28;20040;-75
2023/02/17 13:49:23;;;;;;;0.30;0.30;;;;;;;;;;5070046;28;20016;-75
2023/02/17 13:51:49;;;;;;;1.25;0.50;;;;;;;;;;5070207;28;20024;-75
2023/02/17 13:54:18;;;;;;;1.05;0.35;;;;;;;;;;5066583;28;20051;-76
2023/02/17 13:56:48;;;;;;;0.70;0.40;;;;;;;;;;5070420;28;20052;-76
2023/02/17 13:59:17;;;;;;;0.50;0.50;;;;;;;;;;5069600;28;20051;-76
2023/02/17 14:01:43;;;;;;;0.30;0.20;;;;;;;;;;5070790;28;20052;-75
2023/02/17 14:04:32;;;;;;;0.90;0.32;;;;;;;;;;5070270;28;20055;-76
2023/02/17 14:06:58;;;;;;;0.70;0.30;;;;;;;;;;5071011;28;20024;-76
2023/02/17 14:09:29;;;;;;;0.63;0.40;;;;;;;;;;5070082;28;20032;-76
2023/02/17 14:11:55;;;;;;;0.40;0.10;;;;;;;;;;5067395;28;20075;-75
2023/02/17 14:14:27;;;;;;;0.30;0.30;;;;;;;;;;5069010;28;20463;-75
2023/02/17 14:16:57;;;;;;;0.10;0.10;;;;;;;;;;5068211;28;20388;-76
2023/02/17 14:19:22;;;;;;;0.32;0.30;;;;;;;;;;5070710;28;20013;-75
2023/02/17 14:21:53;;;;;;;1.00;0.32;;;;;;;;;;5070998;28;20031;-75
2023/02/17 14:24:28;;;;;;;0.43;0.30;;;;;;;;;;5069661;28;20037;-75
2023/02/17 14:26:59;;;;;;;1.05;0.30;;;;;;;;;;5070388;28;20012;-75
2023/02/17 14:29:24;;;;;;;0.75;0.40;;;;;;;;;;5071124;28;20370;-75
2023/02/17 14:31:51;;;;;;;0.30;0.25;;;;;;;;;;5069459;28;20028;-76
2023/02/17 14:34:19;;;;;;;1.00;0.30;;;;;;;;;;5063971;28;21622;-75
2023/02/17 14:36:44;;;;;;;0.93;0.40;;;;;;;;;;5066617;28;20021;-76
2023/02/17 14:39:12;;;;;;;0.40;0.30;;;;;;;;;;5068177;28;20030;-76
2023/02/17 14:41:37;;;;;;;0.10;0.10;;;;;;;;;;5076036;28;20025;-76
2023/02/17 14:44:04;;;;;;;0.50;0.30;;;;;;;;;;5069883;28;20488;-76
2023/02/17 14:46:30;;;;;;;1.80;0.50;;;;;;;;;;5074059;28;20428;-76
2023/02/17 14:48:55;;;;;;;0.52;0.38;;;;;;;;;;5072764;28;20024;-76
2023/02/17 14:51:22;;;;;;;0.50;0.50;;;;;;;;;;5074974;28;20021;-75
2023/02/17 14:53:48;;;;;;;0.30;0.30;;;;;;;;;;5073501;28;20077;-75